Time;durP1;ratioP1;P1;durP2;ratioP2;P2;SDS_P1;SDS_P2;PMS_P1;PMS_P2;Temp;Humidity;BMP_temperature;BMP_pressure;BME280_temperature;BME280_humidity;BME280_pressure;Samples;Min_cycle;Max_cycle;Signal;HPM_P1;HPM_P2
2021/12/28 00:01:10;;;;;;;6.82;1.05;;;19.70;99.90;;;;;;5155499;27;20494;-74
2021/12/28 00:03:40;;;;;;;5.03;0.80;;;19.60;99.90;;;;;;5155325;27;20101;-76
2021/12/28 00:06:08;;;;;;;3.10;0.60;;;19.60;99.90;;;;;;5136567;27;20030;-74
2021/12/28 00:08:36;;;;;;;5.03;0.60;;;19.80;99.90;;;;;;5155379;27;20038;-77
2021/12/28 00:11:05;;;;;;;4.93;1.17;;;20.20;99.90;;;;;;5155348;27;20049;-74
2021/12/28 00:13:33;;;;;;;2.80;0.60;;;20.60;99.90;;;;;;5155215;27;20027;-77
2021/12/28 00:18:29;;;;;;;5.95;0.90;;;21.00;99.90;;;;;;5155312;27;20071;-75
2021/12/28 00:20:59;;;;;;;5.53;1.13;;;20.80;99.90;;;;;;5155041;27;20474;-74
2021/12/28 00:23:32;;;;;;;6.18;1.42;;;20.00;99.90;;;;;;5154926;27;20477;-74
2021/12/28 00:26:00;;;;;;;5.53;1.00;;;19.30;99.90;;;;;;5155115;27;20015;-73
2021/12/28 00:28:27;;;;;;;5.55;0.82;;;19.30;99.90;;;;;;5136370;27;20015;-72
2021/12/28 00:30:55;;;;;;;8.68;1.30;;;19.50;99.90;;;;;;5155007;27;20027;-74
2021/12/28 00:33:24;;;;;;;9.25;1.38;;;19.70;99.90;;;;;;5154849;27;20023;-73
2021/12/28 00:35:52;;;;;;;5.47;1.10;;;20.00;99.90;;;;;;5154932;27;20067;-73
2021/12/28 00:38:23;;;;;;;6.57;1.20;;;20.30;99.90;;;;;;5154846;27;20143;-74
2021/12/28 00:40:54;;;;;;;5.72;0.75;;;20.00;99.90;;;;;;5136247;27;20395;-73
2021/12/28 00:43:22;;;;;;;9.50;1.10;;;20.30;99.90;;;;;;5154611;27;20110;-74
2021/12/28 00:45:50;;;;;;;6.13;1.13;;;20.40;99.90;;;;;;5154717;27;20018;-74
2021/12/28 00:48:18;;;;;;;4.60;0.90;;;20.70;99.90;;;;;;5154631;27;20114;-73
2021/12/28 00:50:47;;;;;;;6.13;1.05;;;21.70;99.90;;;;;;5154757;27;20010;-73
2021/12/28 00:53:14;;;;;;;5.18;0.75;;;21.80;99.90;;;;;;5154405;27;20114;-74
2021/12/28 00:55:42;;;;;;;5.25;0.80;;;22.40;99.90;;;;;;5154662;27;20046;-73
2021/12/28 00:58:09;;;;;;;4.32;0.90;;;22.10;99.90;;;;;;5154572;27;20022;-74
2021/12/28 01:00:38;;;;;;;4.75;0.60;;;22.00;99.90;;;;;;5135971;27;20023;-73
2021/12/28 01:03:07;;;;;;;7.00;0.90;;;21.80;99.90;;;;;;5135941;27;20031;-74
2021/12/28 01:05:36;;;;;;;4.47;0.70;;;21.80;99.90;;;;;;5154477;27;20015;-74
2021/12/28 01:08:05;;;;;;;6.43;0.57;;;21.90;99.90;;;;;;5156041;27;20015;-74
2021/12/28 01:10:41;;;;;;;3.08;0.75;;;22.80;99.90;;;;;;5158769;27;20018;-74
2021/12/28 01:13:10;;;;;;;4.97;0.63;;;23.40;99.90;;;;;;5158907;27;20495;-74
2021/12/28 01:15:38;;;;;;;4.15;0.63;;;23.30;99.90;;;;;;5158714;27;20023;-74
2021/12/28 01:18:05;;;;;;;3.20;0.80;;;;;;;;;;5158769;27;20030;-74
2021/12/28 01:20:33;;;;;;;5.47;1.10;;;;;;;;;;5140074;27;20113;-75
2021/12/28 01:23:00;;;;;;;3.25;0.82;;;;;;;;;;5158614;27;20018;-74
2021/12/28 01:25:27;;;;;;;3.92;0.60;;;;;;;;;;5139692;27;20019;-74
2021/12/28 01:27:55;;;;;;;4.80;0.77;;;;;;;;;;5158595;27;20379;-74
2021/12/28 01:30:23;;;;;;;2.42;0.63;;;;;;;;;;5158657;27;20073;-75
2021/12/28 01:32:50;;;;;;;7.20;1.10;;;;;;;;;;5158694;27;20022;-73
2021/12/28 01:35:18;;;;;;;5.30;0.75;;;;;;;;;;5158522;27;20019;-76
2021/12/28 01:37:46;;;;;;;5.95;1.10;;;;;;;;;;5139924;27;20096;-74
2021/12/28 01:40:16;;;;;;;7.28;1.52;;;;;;;;;;5158383;27;20031;-73
2021/12/28 01:43:01;;;;;;;7.13;1.00;;;;;;;;;;5139404;27;20029;-73
2021/12/28 01:45:33;;;;;;;4.80;0.90;;;;;;;;;;5158227;27;20022;-73
2021/12/28 01:48:00;;;;;;;7.40;1.30;;;;;;;;;;5139602;27;20410;-74
2021/12/28 01:50:27;;;;;;;4.50;0.90;;;;;;;;;;5139559;27;20364;-74
2021/12/28 01:52:55;;;;;;;6.38;0.95;;;;;;;;;;5139349;27;20492;-75
2021/12/28 01:55:22;;;;;;;6.63;0.95;;;;;;;;;;5139541;27;20033;-74
2021/12/28 01:57:49;;;;;;;5.80;1.15;;;;;;;;;;5158022;27;20479;-74
2021/12/28 02:00:17;;;;;;;5.15;1.35;;;;;;;;;;5157844;27;20079;-74
2021/12/28 02:02:48;;;;;;;5.18;0.98;;;;;;;;;;5139285;27;20052;-74
2021/12/28 02:05:15;;;;;;;5.07;0.90;;;;;;;;;;5157595;27;20383;-73
2021/12/28 02:07:42;;;;;;;5.82;1.15;;;;;;;;;;5138785;27;20043;-73
2021/12/28 02:10:10;;;;;;;5.63;1.13;;;;;;;;;;5138697;27;20391;-73
2021/12/28 02:12:38;;;;;;;11.43;1.50;;;;;;;;;;5157808;27;20019;-74
2021/12/28 02:15:12;;;;;;;5.35;1.13;;;;;;;;;;5157568;27;20102;-74
2021/12/28 02:17:39;;;;;;;7.93;1.70;;;;;;;;;;5157667;27;20031;-73
2021/12/28 02:20:08;;;;;;;7.13;1.77;;;;;;;;;;5156738;27;20026;-73
2021/12/28 02:22:35;;;;;;;4.55;0.95;;;;;;;;;;5157429;27;20027;-73
2021/12/28 02:25:03;;;;;;;6.60;1.00;;;;;;;;;;5138957;27;20030;-72
2021/12/28 02:27:31;;;;;;;8.13;1.10;;;;;;;;;;5157363;27;20022;-73
2021/12/28 02:29:58;;;;;;;3.58;0.60;;;;;;;;;;5157325;27;20367;-74
2021/12/28 02:32:31;;;;;;;4.40;0.52;;;;;;;;;;5157353;27;20026;-73
2021/12/28 02:34:58;;;;;;;3.30;1.02;;;;;;;;;;5157354;27;20076;-74
2021/12/28 02:37:26;;;;;;;3.67;0.95;;;;;;;;;;5157425;27;20390;-74
2021/12/28 02:39:53;;;;;;;3.60;0.70;;;;;;;;;;5157441;27;20101;-74
2021/12/28 02:42:23;;;;;;;4.45;0.70;;;;;;;;;;5138385;27;20061;-73
2021/12/28 02:45:02;;;;;;;1.67;0.40;;;;;;;;;;5138517;27;20027;-74
2021/12/28 02:47:32;;;;;;;4.20;0.95;;;;;;;;;;5157019;27;20403;-74
2021/12/28 02:49:59;;;;;;;4.28;0.70;;;;;;;;;;5156986;27;20486;-74
2021/12/28 02:52:26;;;;;;;3.58;0.90;;;;;;;;;;5156749;27;20023;-74
2021/12/28 02:54:53;;;;;;;3.92;0.82;;;;;;;;;;5156678;27;20039;-74
2021/12/28 02:57:20;;;;;;;6.25;0.93;;;;;;;;;;5156681;27;20019;-74
2021/12/28 02:59:49;;;;;;;4.97;1.05;;;;;;;;;;5156810;27;20046;-75
2021/12/28 03:02:17;;;;;;;5.50;1.42;;;;;;;;;;5137631;27;20121;-75
2021/12/28 03:04:44;;;;;;;4.38;0.90;;;;;;;;;;5138029;27;20023;-75
2021/12/28 03:07:11;;;;;;;3.08;0.95;;;;;;;;;;5156593;27;20471;-75
2021/12/28 03:09:39;;;;;;;4.38;0.90;;;;;;;;;;5156562;27;20077;-74
2021/12/28 03:12:07;;;;;;;6.45;0.82;;;;;;;;;;5156509;27;20021;-74
2021/12/28 03:14:34;;;;;;;3.97;0.90;;;;;;;;;;5137950;27;20019;-75
2021/12/28 03:17:01;;;;;;;4.38;0.80;;;;;;;;;;5156431;27;20097;-75
2021/12/28 03:19:28;;;;;;;7.72;1.20;;;;;;;;;;5156575;27;20052;-75
2021/12/28 03:21:57;;;;;;;4.22;0.90;;;;;;;;;;5137675;27;20035;-75
2021/12/28 03:24:25;;;;;;;8.48;1.10;;;;;;;;;;5156402;27;20019;-75
2021/12/28 03:26:52;;;;;;;4.88;0.70;;;;;;;;;;5137322;27;20106;-75
2021/12/28 03:29:20;;;;;;;5.80;1.02;;;;;;;;;;5156109;27;20375;-75
2021/12/28 03:31:47;;;;;;;4.82;1.10;;;;;;;;;;5136505;27;20072;-75
2021/12/28 03:34:14;;;;;;;4.20;0.90;;;;;;;;;;5156043;27;20019;-75
2021/12/28 03:36:41;;;;;;;3.85;0.80;;;;;;;;;;5138302;27;20118;-74
2021/12/28 03:39:09;;;;;;;5.22;0.80;;;;;;;;;;5155938;27;20064;-75
2021/12/28 03:41:36;;;;;;;6.10;1.10;;;;;;;;;;5155991;27;20034;-74
2021/12/28 03:44:03;;;;;;;4.88;0.82;;;;;;;;;;5155677;27;20071;-76
2021/12/28 03:46:31;;;;;;;6.82;0.90;;;;;;;;;;5155822;27;20019;-75
2021/12/28 03:48:59;;;;;;;6.63;0.70;;;;;;;;;;5136838;27;20018;-75
2021/12/28 03:51:26;;;;;;;4.63;0.93;;;;;;;;;;5155703;27;20475;-75
2021/12/28 03:53:54;;;;;;;3.85;0.90;;;;;;;;;;5155578;27;20062;-75
2021/12/28 03:56:21;;;;;;;6.75;1.13;;;;;;;;;;5136714;27;20026;-75
2021/12/28 03:58:49;;;;;;;4.70;0.80;;;;;;;;;;5137144;27;20023;-75
2021/12/28 04:01:18;;;;;;;4.47;0.70;;;;;;;;;;5155584;27;20486;-75
2021/12/28 04:03:45;;;;;;;4.78;1.10;;;;;;;;;;5155303;27;20031;-75
2021/12/28 04:06:13;;;;;;;4.03;0.65;;;;;;;;;;5136967;27;20110;-74
2021/12/28 04:08:41;;;;;;;4.47;0.82;;;;;;;;;;5136561;27;20450;-75
2021/12/28 04:13:48;;;;;;;4.95;1.00;;;;;;;;;;5155525;27;20490;-76
2021/12/28 04:16:18;;;;;;;4.63;0.70;;;;;;;;;;5137003;27;20059;-75
2021/12/28 04:18:45;;;;;;;7.32;1.75;;;;;;;;;;5136794;27;20022;-76
2021/12/28 04:21:13;;;;;;;6.07;1.17;;;;;;;;;;5136565;27;20031;-76
2021/12/28 04:23:40;;;;;;;7.35;1.20;;;;;;;;;;5136760;27;20037;-76
2021/12/28 04:26:08;;;;;;;7.22;1.55;;;;;;;;;;5155248;27;20093;-75
2021/12/28 04:28:35;;;;;;;6.53;1.33;;;;;;;;;;5136332;27;20023;-76
2021/12/28 04:31:03;;;;;;;5.03;0.80;;;;;;;;;;5155411;27;20019;-76
2021/12/28 04:33:30;;;;;;;5.22;0.80;;;;;;;;;;5155082;27;20051;-76
2021/12/28 04:35:58;;;;;;;2.60;0.60;;;;;;;;;;5155137;27;20046;-75
2021/12/28 04:38:25;;;;;;;6.20;0.75;;;;;;;;;;5154947;27;20382;-76
2021/12/28 04:40:52;;;;;;;5.32;1.00;;;;;;;;;;5155012;27;20103;-76
2021/12/28 04:43:20;;;;;;;4.40;0.82;;;;;;;;;;5154809;27;20083;-75
2021/12/28 04:45:47;;;;;;;4.63;0.88;;;;;;;;;;5155042;27;20014;-76
2021/12/28 04:48:14;;;;;;;5.30;1.08;;;;;;;;;;5154961;27;20043;-76
2021/12/28 04:50:43;;;;;;;4.95;1.20;;;;;;;;;;5154927;27;20544;-76
2021/12/28 04:53:11;;;;;;;3.17;0.70;;;;;;;;;;5135909;27;20125;-75
2021/12/28 04:55:45;;;;;;;5.93;1.08;;;;;;;;;;5136359;27;20424;-77
2021/12/28 04:58:12;;;;;;;5.90;0.90;;;;;;;;;;5154928;27;20034;-77
2021/12/28 05:00:40;;;;;;;4.43;0.98;;;;;;;;;;5135928;27;20019;-76
2021/12/28 05:03:07;;;;;;;3.85;0.60;;;;;;;;;;5154516;27;20483;-76
2021/12/28 05:05:34;;;;;;;5.57;0.93;;;;;;;;;;5135654;27;20106;-75
2021/12/28 05:08:04;;;;;;;5.47;1.02;;;;;;;;;;5154873;27;20022;-78
2021/12/28 05:10:31;;;;;;;3.70;0.60;;;;;;;;;;5154657;27;20465;-77
2021/12/28 05:12:58;;;;;;;7.05;1.20;;;;;;;;;;5154697;27;20046;-77
2021/12/28 05:15:25;;;;;;;5.55;1.23;;;;;;;;;;5154537;27;20027;-78
2021/12/28 05:17:52;;;;;;;5.68;0.88;;;;;;;;;;5135896;27;20023;-78
2021/12/28 05:20:20;;;;;;;5.03;1.35;;;;;;;;;;5136093;27;20050;-78
2021/12/28 05:22:47;;;;;;;5.47;0.80;;;;;;;;;;5135685;27;20048;-78
2021/12/28 05:25:14;;;;;;;5.78;0.80;;;;;;;;;;5154430;27;20015;-78
2021/12/28 05:27:41;;;;;;;4.65;0.95;;;;;;;;;;5135810;27;20025;-78
2021/12/28 05:30:09;;;;;;;5.57;1.20;;;;;;;;;;5154469;27;20018;-78
2021/12/28 05:32:36;;;;;;;4.60;1.08;;;;;;;;;;5154589;27;20491;-78
2021/12/28 05:35:04;;;;;;;6.63;0.93;;;;;;;;;;5154512;27;20023;-78
2021/12/28 05:37:31;;;;;;;4.88;1.10;;;;;;;;;;5154486;27;20110;-77
2021/12/28 05:39:58;;;;;;;3.42;0.70;;;;;;;;;;5154259;27;20517;-76
2021/12/28 05:42:26;;;;;;;6.22;1.00;;;;;;;;;;5154156;27;20022;-76
2021/12/28 05:44:53;;;;;;;6.18;0.90;;;;;;;;;;5154211;27;20381;-77
2021/12/28 05:47:20;;;;;;;5.03;1.05;;;;;;;;;;5135359;27;20072;-76
2021/12/28 05:49:47;;;;;;;5.50;1.05;;;;;;;;;;5154218;27;20019;-76
2021/12/28 05:52:14;;;;;;;4.60;0.82;;;;;;;;;;5135422;27;20042;-76
2021/12/28 05:54:42;;;;;;;4.97;0.75;;;;;;;;;;5154558;27;20035;-76
2021/12/28 05:57:09;;;;;;;7.78;1.00;;;;;;;;;;5138969;27;20121;-75
2021/12/28 05:59:37;;;;;;;6.10;1.05;;;;;;;;;;5158018;27;20023;-74
2021/12/28 06:02:05;;;;;;;9.60;1.33;;;;;;;;;;5138929;27;20083;-73
2021/12/28 06:04:32;;;;;;;7.25;1.48;;;;;;;;;;5138838;27;20019;-73
2021/12/28 06:07:00;;;;;;;10.73;1.88;;;;;;;;;;5157841;27;20015;-74
2021/12/28 06:09:27;;;;;;;6.93;1.60;;;;;;;;;;5157754;27;20021;-77
2021/12/28 06:11:54;;;;;;;7.80;1.98;;;;;;;;;;5139429;27;20014;-80
2021/12/28 06:14:22;;;;;;;11.18;1.85;;;;;;;;;;5158332;27;20021;-79
2021/12/28 06:16:49;;;;;;;6.07;1.30;;;;;;;;;;5139340;27;20148;-81
2021/12/28 06:19:16;;;;;;;8.77;1.65;;;;;;;;;;5139143;27;20455;-81
2021/12/28 06:21:43;;;;;;;8.32;1.60;;;;;;;;;;5157940;27;20022;-79
2021/12/28 06:24:10;;;;;;;6.80;0.98;;;;;;;;;;5157618;27;20063;-80
2021/12/28 06:26:38;;;;;;;12.40;1.52;;;;;;;;;;5157456;27;20069;-79
2021/12/28 06:29:06;;;;;;;8.85;1.30;;;;;;;;;;5157814;27;20019;-80
2021/12/28 06:31:34;;;;;;;5.38;1.13;;;;;;;;;;5138685;27;20390;-80
2021/12/28 06:34:02;;;;;;;7.70;1.20;;;;;;;;;;5157854;27;20023;-81
2021/12/28 06:36:30;;;;;;;4.45;1.23;;;;;;;;;;5157592;27;20494;-80
2021/12/28 06:38:58;;;;;;;5.93;1.10;;;;;;;;;;5138790;27;20390;-79
2021/12/28 06:41:25;;;;;;;6.80;1.80;;;;;;;;;;5157209;27;20019;-80
2021/12/28 06:43:53;;;;;;;6.95;1.27;;;;;;;;;;5157187;27;20015;-81
2021/12/28 06:46:20;;;;;;;8.68;1.27;;;;;;;;;;5157199;27;20019;-80
2021/12/28 06:48:47;;;;;;;5.43;0.90;;;;;;;;;;5138571;27;20027;-81
2021/12/28 06:51:15;;;;;;;7.15;0.90;;;;;;;;;;5138288;27;20364;-80
2021/12/28 06:53:42;;;;;;;6.60;1.35;;;;;;;;;;5138069;27;20074;-80
2021/12/28 06:56:09;;;;;;;9.52;1.75;;;;;;;;;;5157086;27;20022;-81
2021/12/28 06:58:36;;;;;;;6.75;1.30;;;;;;;;;;5138297;27;20414;-81
2021/12/28 07:01:04;;;;;;;7.75;1.40;;;;;;;;;;5157226;27;20025;-80
2021/12/28 07:03:31;;;;;;;7.43;1.08;;;;;;;;;;5157084;27;20018;-80
2021/12/28 07:05:58;;;;;;;4.80;1.20;;;;;;;;;;5137857;27;20071;-80
2021/12/28 07:08:26;;;;;;;6.28;1.40;;;;;;;;;;5156739;27;20019;-80
2021/12/28 07:10:54;;;;;;;10.63;1.50;;;;;;;;;;5156606;27;20063;-80
2021/12/28 07:13:21;;;;;;;6.53;1.20;;;;;;;;;;5156608;27;20018;-81
2021/12/28 07:15:48;;;;;;;8.85;1.33;;;;;;;;;;5137847;27;20031;-81
2021/12/28 07:18:15;;;;;;;9.45;1.40;;;;;;;;;;5156706;27;20030;-80
2021/12/28 07:20:42;;;;;;;5.65;1.00;;;;;;;;;;5156649;27;20018;-81
2021/12/28 07:23:09;;;;;;;9.20;1.60;;;;;;;;;;5156575;27;20491;-81
2021/12/28 07:25:37;;;;;;;8.80;1.20;;;;;;;;;;5156583;27;20015;-82
2021/12/28 07:28:04;;;;;;;10.52;1.60;;;;;;;;;;5137531;27;20074;-82
2021/12/28 07:30:31;;;;;;;5.63;1.20;;;;;;;;;;5138141;27;20474;-82
2021/12/28 07:32:58;;;;;;;11.05;2.03;;;;;;;;;;5137662;27;20026;-82
2021/12/28 07:35:25;;;;;;;7.75;1.52;;;;;;;;;;5137843;27;20027;-82
2021/12/28 07:37:53;;;;;;;7.28;1.23;;;;;;;;;;5156549;27;20021;-82
2021/12/28 07:40:21;;;;;;;7.15;1.15;;;;;;;;;;5137630;27;20034;-83
2021/12/28 07:42:48;;;;;;;8.13;1.25;;;18.80;99.90;;;;;;5156559;27;20479;-81
2021/12/28 07:45:17;;;;;;;6.25;1.67;;;18.70;99.90;;;;;;5140733;27;20023;-82
2021/12/28 07:47:44;;;;;;;5.07;1.00;;;18.80;99.90;;;;;;5156428;27;20019;-80
2021/12/28 07:50:15;;;;;;;7.85;1.58;;;19.00;99.90;;;;;;5137787;27;20015;-80
2021/12/28 07:52:44;;;;;;;6.55;1.10;;;19.10;99.90;;;;;;5156112;27;20387;-81
2021/12/28 07:55:12;;;;;;;7.85;1.55;;;19.30;99.90;;;;;;5156174;27;20105;-80
2021/12/28 07:57:39;;;;;;;7.82;1.50;;;19.40;99.90;;;;;;5155761;27;20049;-78
2021/12/28 08:00:14;;;;;;;7.80;1.30;;;19.20;99.90;;;;;;5155687;27;20070;-78
2021/12/28 08:02:46;;;;;;;7.60;1.35;;;19.00;99.90;;;;;;5155921;27;20026;-80
2021/12/28 08:05:14;;;;;;;8.30;1.50;;;19.00;99.90;;;;;;5155788;27;20030;-79
2021/12/28 08:07:42;;;;;;;9.43;1.35;;;18.90;99.90;;;;;;5155691;27;20019;-81
2021/12/28 08:10:12;;;;;;;5.93;0.90;;;18.80;99.90;;;;;;5137100;27;20022;-79
2021/12/28 08:12:39;;;;;;;7.00;1.23;;;18.60;99.90;;;;;;5136435;27;20067;-79
2021/12/28 08:15:07;;;;;;;6.10;0.90;;;18.60;99.90;;;;;;5155678;27;20023;-78
2021/12/28 08:17:36;;;;;;;10.02;1.80;;;18.40;99.90;;;;;;5154686;27;20114;-79
2021/12/28 08:20:09;;;;;;;8.68;1.42;;;18.40;99.90;;;;;;5155223;27;20473;-78
2021/12/28 08:22:38;;;;;;;6.22;1.30;;;18.50;99.90;;;;;;5155217;27;20332;-79
2021/12/28 08:25:06;;;;;;;7.97;1.25;;;18.40;99.90;;;;;;5136287;27;20019;-80
2021/12/28 08:27:34;;;;;;;9.18;1.70;;;18.40;99.90;;;;;;5155228;27;20105;-80
2021/12/28 08:30:01;;;;;;;6.22;1.30;;;18.40;99.90;;;;;;5155246;27;20254;-79
2021/12/28 08:32:29;;;;;;;10.18;1.13;;;18.30;99.90;;;;;;5136653;27;20075;-80
2021/12/28 08:34:56;;;;;;;6.13;1.30;;;18.30;99.90;;;;;;5155397;27;20018;-80
2021/12/28 08:37:23;;;;;;;5.70;0.98;;;18.20;99.90;;;;;;5155255;27;20076;-80
2021/12/28 08:39:51;;;;;;;6.63;1.00;;;18.20;99.90;;;;;;5155079;27;20083;-80
2021/12/28 08:42:19;;;;;;;6.20;0.98;;;18.20;99.90;;;;;;5136065;27;20050;-78
2021/12/28 08:44:47;;;;;;;4.80;1.20;;;18.20;99.90;;;;;;5154961;27;20486;-78
2021/12/28 08:47:14;;;;;;;6.00;1.23;;;18.10;99.90;;;;;;5154862;27;20091;-78
2021/12/28 08:49:42;;;;;;;7.40;1.08;;;18.10;99.90;;;;;;5136290;27;20467;-79
2021/12/28 08:52:09;;;;;;;6.82;1.15;;;18.00;99.90;;;;;;5154969;27;20024;-77
2021/12/28 08:54:37;;;;;;;9.07;1.20;;;18.10;99.90;;;;;;5136372;27;20054;-78
2021/12/28 08:57:04;;;;;;;5.38;0.93;;;18.00;99.90;;;;;;5136055;27;20023;-79
2021/12/28 08:59:32;;;;;;;8.70;1.20;;;18.00;99.90;;;;;;5154750;27;20463;-78
2021/12/28 09:02:00;;;;;;;7.00;1.00;;;17.90;99.90;;;;;;5154683;27;20015;-78
2021/12/28 09:04:27;;;;;;;11.90;1.70;;;17.90;99.90;;;;;;5154578;27;20022;-78
2021/12/28 09:06:55;;;;;;;6.00;0.98;;;17.90;99.90;;;;;;5136022;27;20022;-78
2021/12/28 09:09:22;;;;;;;6.15;0.90;;;17.80;99.90;;;;;;5136158;27;20015;-78
2021/12/28 09:11:49;;;;;;;7.30;1.75;;;;;;;;;;5154665;27;20026;-77
2021/12/28 09:14:16;;;;;;;7.88;1.33;;;;;;;;;;5154559;27;20019;-75
2021/12/28 09:16:44;;;;;;;7.05;1.20;;;;;;;;;;5154637;27;20035;-75
2021/12/28 09:19:11;;;;;;;6.00;1.08;;;;;;;;;;5154419;27;20466;-74
2021/12/28 09:21:38;;;;;;;6.05;1.20;;;;;;;;;;5154441;27;20023;-75
2021/12/28 09:24:06;;;;;;;6.68;0.90;;;;;;;;;;5154399;27;20026;-76
2021/12/28 09:26:34;;;;;;;5.70;1.05;;;;;;;;;;5154423;27;20019;-77
2021/12/28 09:29:01;;;;;;;8.57;1.58;;;;;;;;;;5154727;27;20026;-79
2021/12/28 09:31:29;;;;;;;8.38;1.17;;;;;;;;;;5139874;27;20019;-81
2021/12/28 09:33:56;;;;;;;5.60;1.40;;;;;;;;;;5159120;27;20101;-79
2021/12/28 09:36:23;;;;;;;9.90;1.60;;;;;;;;;;5140709;27;20027;-79
2021/12/28 09:38:50;;;;;;;7.35;0.82;;;;;;;;;;5159152;27;20102;-77
2021/12/28 09:41:17;;;;;;;4.93;1.00;;;;;;;;;;5159313;27;20023;-79
2021/12/28 09:43:45;;;;;;;7.43;1.40;;;;;;;;;;5140487;27;20398;-78
2021/12/28 09:46:12;;;;;;;5.30;1.20;;;;;;;;;;5159035;27;20076;-78
2021/12/28 09:48:40;;;;;;;6.50;0.82;;;;;;;;;;5158475;27;20038;-76
2021/12/28 09:51:07;;;;;;;7.13;0.77;;;;;;;;;;5158449;27;20446;-77
2021/12/28 09:53:35;;;;;;;7.20;1.40;;;;;;;;;;5158041;27;20043;-78
2021/12/28 09:56:04;;;;;;;7.25;1.08;;;;;;;;;;5158347;27;20019;-78
2021/12/28 09:58:34;;;;;;;6.22;1.05;;;;;;;;;;5158140;27;20029;-78
2021/12/28 10:01:01;;;;;;;6.72;0.90;;;;;;;;;;5158207;27;20019;-79
2021/12/28 10:03:28;;;;;;;5.80;1.02;;;;;;;;;;5157924;27;20027;-78
2021/12/28 10:05:55;;;;;;;7.65;0.90;;;;;;;;;;5158480;27;20482;-78
2021/12/28 10:08:27;;;;;;;4.32;0.80;;;;;;;;;;5158332;27;20425;-79
2021/12/28 10:10:57;;;;;;;5.90;1.30;;;;;;;;;;5158228;27;20067;-80
2021/12/28 10:13:28;;;;;;;5.63;0.93;;;;;;;;;;5158009;27;20071;-78
2021/12/28 10:15:56;;;;;;;5.90;0.90;;;;;;;;;;5139091;27;20490;-78
2021/12/28 10:18:23;;;;;;;8.85;1.40;;;;;;;;;;5139409;27;20023;-80
2021/12/28 10:20:55;;;;;;;8.32;1.15;;;;;;;;;;5139450;27;20029;-78
2021/12/28 10:23:25;;;;;;;5.10;1.00;;;;;;;;;;5157777;27;20026;-80
2021/12/28 10:25:53;;;;;;;7.15;0.95;;;;;;;;;;5157849;27;20033;-80
2021/12/28 10:28:25;;;;;;;7.38;1.15;;;;;;;;;;5157761;27;20470;-79
2021/12/28 10:30:54;;;;;;;6.65;1.20;;;;;;;;;;5139596;27;20023;-78
2021/12/28 10:33:25;;;;;;;4.25;1.08;;;;;;;;;;5139253;27;20562;-77
2021/12/28 10:36:00;;;;;;;5.40;1.63;;;;;;;;;;5157769;27;20058;-79
2021/12/28 10:38:29;;;;;;;4.68;0.95;;;;;;;;;;5157492;27;20019;-79
2021/12/28 10:41:00;;;;;;;6.07;1.10;;;;;;;;;;5138334;27;20033;-79
2021/12/28 10:43:30;;;;;;;6.55;0.80;;;;;;;;;;5138496;27;20367;-79
2021/12/28 10:46:02;;;;;;;4.55;0.80;;;;;;;;;;5138584;27;20018;-79
2021/12/28 10:48:33;;;;;;;6.07;1.38;;;;;;;;;;5157101;27;20049;-79
2021/12/28 10:51:04;;;;;;;5.80;1.10;;;;;;;;;;5157357;27;20010;-79
2021/12/28 10:53:56;;;;;;;5.88;1.10;;;;;;;;;;5156942;27;20035;-79
2021/12/28 10:56:28;;;;;;;5.35;1.10;;;;;;;;;;5138479;27;20030;-79
2021/12/28 10:58:55;;;;;;;7.88;1.00;;;;;;;;;;5138198;27;20027;-79
2021/12/28 11:01:24;;;;;;;4.53;0.88;;;;;;;;;;5157129;27;20074;-80
2021/12/28 11:03:56;;;;;;;7.43;0.80;;;;;;;;;;5156990;27;20075;-81
2021/12/28 11:06:25;;;;;;;4.03;0.70;;;;;;;;;;5157314;27;20500;-78
2021/12/28 11:08:55;;;;;;;6.97;1.10;;;;;;;;;;5156940;27;20019;-78
2021/12/28 11:11:24;;;;;;;6.97;0.70;;;;;;;;;;5138221;27;20053;-78
2021/12/28 11:13:55;;;;;;;5.95;1.17;;;;;;;;;;5156776;27;20282;-78
2021/12/28 11:16:26;;;;;;;7.65;1.33;;;;;;;;;;5156752;27;20018;-78
2021/12/28 11:19:03;;;;;;;7.13;1.10;;;;;;;;;;5156804;27;20026;-79
2021/12/28 11:21:32;;;;;;;6.43;0.98;;;;;;;;;;5156893;27;20019;-79
2021/12/28 11:24:17;;;;;;;8.02;1.45;;;;;;;;;;5156599;27;20022;-80
2021/12/28 11:26:49;;;;;;;7.18;1.08;;;;;;;;;;5156795;27;20026;-78
2021/12/28 11:29:23;;;;;;;5.18;1.00;;;;;;;;;;5156620;27;20034;-78
2021/12/28 11:31:58;;;;;;;7.00;1.00;;;;;;;;;;5137784;27;20030;-78
2021/12/28 11:34:28;;;;;;;4.20;0.65;;;;;;;;;;5156568;27;20026;-78
2021/12/28 11:37:01;;;;;;;5.90;1.10;;;;;;;;;;5156690;27;20082;-78
2021/12/28 11:39:30;;;;;;;4.80;0.60;;;;;;;;;;5156363;27;20023;-78
2021/12/28 11:41:58;;;;;;;3.70;0.60;;;;;;;;;;5137782;27;20040;-79
2021/12/28 11:44:26;;;;;;;6.28;1.05;;;;;;;;;;5137390;27;20029;-78
2021/12/28 11:46:55;;;;;;;6.53;0.90;;;;;;;;;;5156287;27;20384;-79
2021/12/28 11:49:26;;;;;;;5.63;0.93;;;;;;;;;;5156286;27;20015;-79
2021/12/28 11:52:01;;;;;;;6.90;1.73;;;;;;;;;;5155358;27;20026;-79
2021/12/28 11:54:30;;;;;;;9.15;1.20;;;;;;;;;;5136630;27;20046;-80
2021/12/28 11:57:00;;;;;;;5.85;1.23;;;;;;;;;;5156066;27;20023;-78
2021/12/28 11:59:32;;;;;;;7.13;0.77;;;;;;;;;;5155914;27;20102;-78
2021/12/28 12:02:08;;;;;;;6.32;0.80;;;;;;;;;;5137159;27;20029;-78
2021/12/28 12:04:35;;;;;;;6.15;1.63;;;;;;;;;;5155911;27;20041;-78
2021/12/28 12:07:12;;;;;;;7.93;1.00;;;;;;;;;;5137336;27;20030;-79
2021/12/28 12:09:55;;;;;;;4.97;0.70;;;;;;;;;;5155813;27;20467;-79
2021/12/28 12:12:28;;;;;;;4.40;0.82;;;;;;;;;;5155819;27;20090;-78
2021/12/28 12:14:58;;;;;;;5.55;1.30;;;;;;;;;;5155582;27;20019;-79
2021/12/28 12:17:25;;;;;;;5.03;0.90;;;;;;;;;;5137154;27;20471;-78
2021/12/28 12:19:52;;;;;;;4.70;0.70;;;;;;;;;;5155573;27;20271;-78
2021/12/28 12:22:31;;;;;;;2.78;0.85;;;;;;;;;;5137005;27;20098;-78
2021/12/28 12:25:04;;;;;;;6.88;1.52;;;;;;;;;;5155519;27;20046;-79
2021/12/28 12:27:40;;;;;;;5.68;0.93;;;;;;;;;;5155482;27;20018;-79
2021/12/28 12:30:20;;;;;;;7.72;1.00;;;;;;;;;;5155419;27;20424;-78
2021/12/28 12:33:05;;;;;;;4.70;1.00;;;;;;;;;;5155846;27;20030;-79
2021/12/28 12:35:50;;;;;;;7.72;1.42;;;;;;;;;;5155616;27;20033;-79
2021/12/28 12:38:17;;;;;;;6.28;0.98;;;;;;;;;;5155121;27;20493;-79
2021/12/28 12:40:59;;;;;;;6.93;0.95;;;;;;;;;;5136096;27;20425;-79
2021/12/28 12:43:36;;;;;;;7.50;1.20;;;;;;;;;;5154850;27;20501;-79
2021/12/28 12:46:09;;;;;;;5.95;1.00;;;;;;;;;;5155248;27;20459;-79
2021/12/28 12:48:36;;;;;;;4.15;0.65;;;;;;;;;;5154811;27;20046;-79
2021/12/28 12:51:29;;;;;;;5.85;1.02;;;;;;;;;;5135939;27;20364;-79
2021/12/28 12:53:58;;;;;;;5.63;0.93;;;;;;;;;;5131794;27;20558;-78
2021/12/28 12:56:28;;;;;;;4.10;0.63;;;;;;;;;;5154901;27;20022;-79
2021/12/28 12:58:57;;;;;;;6.95;1.55;;;;;;;;;;5135842;27;20085;-79
2021/12/28 13:01:27;;;;;;;4.50;1.15;;;;;;;;;;5135904;27;20023;-79
2021/12/28 13:03:55;;;;;;;7.00;1.23;;;;;;;;;;5135282;27;20035;-79
2021/12/28 13:06:41;;;;;;;5.40;0.77;;;;;;;;;;5154838;27;20015;-80
2021/12/28 13:09:11;;;;;;;7.35;1.17;;;;;;;;;;5154617;27;20094;-79
2021/12/28 13:11:39;;;;;;;4.88;0.70;;;;;;;;;;5154576;27;20025;-79
2021/12/28 13:14:06;;;;;;;3.08;0.60;;;;;;;;;;5154701;27;20023;-80
2021/12/28 13:16:33;;;;;;;5.40;0.70;;;;;;;;;;5154655;27;20023;-80
2021/12/28 13:19:10;;;;;;;4.32;0.70;;;;;;;;;;5154599;27;20045;-80
2021/12/28 13:21:38;;;;;;;4.60;0.85;;;;;;;;;;5154702;27;20454;-79
2021/12/28 13:24:09;;;;;;;5.32;0.70;;;;;;;;;;5154468;27;20031;-79
2021/12/28 13:26:50;;;;;;;5.35;1.25;;;;;;;;;;5135642;27;20031;-80
2021/12/28 13:29:16;;;;;;;;;;;;;;;;;;5154913;27;20511;-79
2021/12/28 13:31:44;;;;;;;4.85;1.17;;;;;;;;;;5154748;27;20378;-79
2021/12/28 13:34:11;;;;;;;6.90;1.35;;;;;;;;;;5154492;27;20027;-80
2021/12/28 13:36:48;;;;;;;7.43;1.27;;;;;;;;;;5135541;27;20030;-81
2021/12/28 13:39:15;;;;;;;5.75;1.08;;;;;;;;;;5154785;27;20022;-80
2021/12/28 13:41:49;;;;;;;5.78;0.77;;;;;;;;;;5136471;27;20026;-79
2021/12/28 13:44:17;;;;;;;6.82;1.27;;;;;;;;;;5155029;27;20050;-79
2021/12/28 13:46:44;;;;;;;4.85;0.82;;;;;;;;;;5155605;27;20022;-79
2021/12/28 13:49:14;;;;;;;5.60;0.95;;;;;;;;;;5154746;27;20058;-80
2021/12/28 13:51:42;;;;;;;4.20;0.93;;;;;;;;;;5136099;27;20471;-79
2021/12/28 13:54:10;;;;;;;4.47;0.85;;;;;;;;;;5135542;27;20053;-79
2021/12/28 13:56:39;;;;;;;3.97;1.08;;;;;;;;;;5135610;27;20399;-79
2021/12/28 13:59:08;;;;;;;8.95;1.35;;;;;;;;;;5154423;27;20050;-80
2021/12/28 14:01:41;;;;;;;6.25;0.80;;;;;;;;;;5154571;27;20079;-80
2021/12/28 14:04:09;;;;;;;2.88;0.80;;;;;;;;;;5154554;27;20015;-79
2021/12/28 14:06:38;;;;;;;8.55;1.17;;;;;;;;;;5154892;27;20411;-79
2021/12/28 14:09:07;;;;;;;4.10;1.02;;;;;;;;;;5135776;27;20027;-79
2021/12/28 14:11:40;;;;;;;3.95;0.80;;;;;;;;;;5154766;27;20030;-80
2021/12/28 14:14:23;;;;;;;5.00;0.90;;;;;;;;;;5135719;27;20019;-81
2021/12/28 14:16:54;;;;;;;6.30;1.40;;;;;;;;;;5156682;27;20026;-79
2021/12/28 14:19:21;;;;;;;7.00;1.00;;;;;;;;;;5157858;27;20023;-80
2021/12/28 14:21:48;;;;;;;5.47;1.05;;;;;;;;;;5157974;27;20030;-80
2021/12/28 14:24:16;;;;;;;8.80;1.30;;;;;;;;;;5157845;27;20030;-80
2021/12/28 14:26:45;;;;;;;7.55;1.17;;;;;;;;;;5157841;27;20045;-80
2021/12/28 14:29:15;;;;;;;4.97;1.02;;;;;;;;;;5138958;27;20113;-79
2021/12/28 14:31:43;;;;;;;6.07;1.35;;;;;;;;;;5158209;27;20444;-78
2021/12/28 14:34:11;;;;;;;6.55;1.02;;;;;;;;;;5157941;27;20027;-80